createdAt,value
2022-08-17T00:01:51.421Z,14.60
2022-08-17T00:04:19.978Z,15.00
2022-08-17T00:06:49.093Z,16.00
2022-08-17T00:09:18.809Z,11.80
2022-08-17T00:12:41.620Z,10.80
2022-08-17T00:14:35.093Z,12.40
2022-08-17T00:17:03.958Z,12.80
2022-08-17T00:19:32.815Z,9.40
2022-08-17T00:22:34.097Z,13.40
2022-08-17T00:24:50.718Z,13.40
2022-08-17T00:27:18.747Z,13.80
2022-08-17T00:29:46.933Z,11.40
2022-08-17T00:33:14.307Z,14.80
2022-08-17T00:35:02.382Z,14.00
2022-08-17T00:37:30.051Z,11.20
2022-08-17T00:39:58.043Z,12.00
2022-08-17T00:42:30.782Z,16.20
2022-08-17T00:44:58.841Z,14.20
2022-08-17T00:47:26.624Z,13.00
2022-08-17T00:49:54.293Z,14.00
2022-08-17T00:52:23.165Z,8.20
2022-08-17T00:54:52.367Z,14.80
2022-08-17T00:57:20.180Z,10.40
2022-08-17T00:59:55.950Z,15.00
2022-08-17T01:02:35.005Z,15.00
2022-08-17T01:05:19.035Z,12.80
2022-08-17T01:07:46.967Z,14.00
2022-08-17T01:10:57.103Z,11.00
2022-08-17T01:13:03.449Z,12.40
2022-08-17T01:15:31.515Z,14.40
2022-08-17T01:18:00.220Z,14.60
2022-08-17T01:20:27.910Z,11.60
2022-08-17T01:22:55.612Z,12.00
2022-08-17T01:25:23.467Z,9.20
2022-08-17T01:27:51.793Z,10.80
2022-08-17T01:30:56.652Z,12.20
2022-08-17T01:33:11.538Z,9.20
2022-08-17T01:35:39.202Z,12.80
2022-08-17T01:38:06.910Z,12.40
2022-08-17T01:40:35.324Z,11.00
2022-08-17T01:43:03.033Z,10.00
2022-08-17T01:45:32.248Z,13.20
2022-08-17T01:47:59.902Z,12.80
2022-08-17T01:50:27.854Z,13.60
2022-08-17T01:52:55.579Z,12.20
2022-08-17T01:55:27.239Z,12.00
2022-08-17T01:57:55.221Z,14.75
2022-08-17T02:00:23.191Z,13.80
2022-08-17T02:02:50.939Z,13.40
2022-08-17T02:05:18.725Z,13.60
2022-08-17T02:07:47.955Z,15.75
2022-08-17T02:10:33.643Z,14.75
2022-08-17T02:13:02.350Z,13.40
2022-08-17T02:15:30.099Z,11.50
2022-08-17T02:17:57.789Z,11.25
2022-08-17T02:20:41.684Z,11.50
2022-08-17T02:23:10.610Z,11.20
2022-08-17T02:25:38.288Z,14.50
2022-08-17T02:28:06.183Z,10.00
2022-08-17T02:31:01.582Z,13.00
2022-08-17T02:33:21.776Z,12.25
2022-08-17T02:35:49.832Z,13.80
2022-08-17T02:38:17.545Z,13.50
2022-08-17T02:40:45.679Z,9.60
2022-08-17T02:43:14.735Z,11.75
2022-08-17T02:45:42.539Z,11.60
2022-08-17T02:48:10.274Z,13.25
2022-08-17T02:50:38.636Z,12.00
2022-08-17T02:53:06.485Z,11.75
2022-08-17T02:55:35.013Z,13.00
2022-08-17T02:58:03.864Z,10.00
2022-08-17T03:00:34.083Z,10.75
2022-08-17T03:03:01.818Z,11.00
2022-08-17T03:05:29.416Z,10.00
2022-08-17T03:07:57.171Z,11.00
2022-08-17T03:10:25.700Z,9.50
2022-08-17T03:12:53.376Z,11.00
2022-08-17T03:15:21.030Z,10.75
2022-08-17T03:17:48.733Z,13.25
2022-08-17T03:20:17.366Z,13.25
2022-08-17T03:22:47.891Z,10.50
2022-08-17T03:25:22.595Z,13.00
2022-08-17T03:27:51.525Z,13.50
2022-08-17T03:30:19.724Z,13.50
2022-08-17T03:32:48.928Z,10.60
2022-08-17T03:35:16.523Z,13.00
2022-08-17T03:37:46.508Z,12.50
2022-08-17T03:40:14.504Z,11.00
2022-08-17T03:42:42.347Z,10.75
2022-08-17T03:45:09.941Z,13.00
2022-08-17T03:47:55.148Z,11.00
2022-08-17T03:50:40.017Z,13.40
2022-08-17T03:53:25.321Z,15.25
2022-08-17T03:56:10.165Z,12.50
2022-08-17T03:58:38.193Z,10.50
2022-08-17T04:01:06.183Z,13.25
2022-08-17T04:03:33.975Z,12.00
2022-08-17T04:06:02.397Z,10.00
2022-08-17T04:08:30.114Z,11.50
2022-08-17T04:10:58.007Z,11.00
2022-08-17T04:13:25.777Z,12.50
2022-08-17T04:15:53.413Z,7.00
2022-08-17T04:18:21.069Z,10.75
2022-08-17T04:20:48.804Z,12.25
2022-08-17T04:23:16.507Z,10.00
2022-08-17T04:25:45.174Z,10.50
2022-08-17T04:28:16.005Z,10.00
2022-08-17T04:30:45.317Z,9.25
2022-08-17T04:33:14.256Z,8.25
2022-08-17T04:35:42.131Z,11.00
2022-08-17T04:38:09.832Z,10.00
2022-08-17T04:40:55.398Z,9.00
2022-08-17T04:43:23.073Z,10.00
2022-08-17T04:45:55.023Z,10.25
2022-08-17T04:48:33.400Z,9.75
2022-08-17T04:51:03.831Z,10.00
2022-08-17T04:53:31.502Z,14.00
2022-08-17T04:55:59.460Z,7.50
2022-08-17T04:58:27.475Z,10.75
2022-08-17T05:00:55.164Z,12.50
2022-08-17T05:03:22.893Z,12.00
2022-08-17T05:05:50.550Z,11.50
2022-08-17T05:08:18.286Z,11.00
2022-08-17T05:10:46.160Z,11.50
2022-08-17T05:13:15.587Z,12.50
2022-08-17T05:15:44.856Z,13.00
2022-08-17T05:18:13.047Z,13.50
2022-08-17T05:20:40.942Z,8.50
2022-08-17T05:23:08.590Z,11.25
2022-08-17T05:25:36.302Z,11.00
2022-08-17T05:28:05.140Z,11.00
2022-08-17T05:30:34.238Z,11.50
2022-08-17T05:33:01.948Z,11.00
2022-08-17T05:35:29.601Z,10.50
2022-08-17T05:37:57.299Z,10.25
2022-08-17T05:40:26.066Z,10.75
2022-08-17T05:42:53.786Z,11.00
2022-08-17T05:45:46.089Z,4.50
2022-08-17T05:48:10.459Z,11.75
2022-08-17T05:50:38.374Z,13.00
2022-08-17T05:53:06.498Z,10.60
2022-08-17T05:55:34.479Z,13.50
2022-08-17T05:58:02.506Z,10.60
2022-08-17T06:00:31.251Z,10.20
2022-08-17T06:02:58.962Z,11.00
2022-08-17T06:05:26.680Z,13.80
2022-08-17T06:07:54.648Z,11.40
2022-08-17T06:10:22.299Z,5.80
2022-08-17T06:12:50.201Z,11.00
2022-08-17T06:15:19.561Z,11.60
2022-08-17T06:17:47.162Z,11.80
2022-08-17T06:20:14.899Z,7.00
2022-08-17T06:22:42.637Z,11.80
2022-08-17T06:25:10.952Z,9.00
2022-08-17T06:27:38.695Z,10.00
2022-08-17T06:30:09.357Z,9.20
2022-08-17T06:32:38.248Z,11.00
2022-08-17T06:35:07.124Z,12.00
2022-08-17T06:37:34.826Z,11.40
2022-08-17T06:40:02.993Z,9.80
2022-08-17T06:43:02.190Z,9.00
2022-08-17T06:45:18.413Z,9.80
2022-08-17T06:47:47.673Z,8.00
2022-08-17T06:50:15.900Z,9.00
2022-08-17T06:52:56.058Z,9.20
2022-08-17T06:55:23.907Z,6.00
2022-08-17T06:57:51.677Z,8.60
2022-08-17T07:00:19.395Z,9.60
2022-08-17T07:02:53.068Z,9.00
2022-08-17T07:05:21.125Z,8.60
2022-08-17T07:08:04.989Z,7.20
2022-08-17T07:10:32.738Z,8.20
2022-08-17T07:13:00.397Z,9.00
2022-08-17T07:15:28.127Z,9.00
2022-08-17T07:17:56.340Z,10.00
2022-08-17T07:20:24.078Z,7.00
2022-08-17T07:22:59.638Z,9.60
2022-08-17T07:25:30.811Z,9.40
2022-08-17T07:27:59.921Z,8.20
2022-08-17T07:30:27.588Z,9.00
2022-08-17T07:32:57.549Z,9.20
2022-08-17T07:35:37.690Z,10.00
2022-08-17T07:38:25.506Z,9.00
2022-08-17T07:40:57.804Z,10.00
2022-08-17T07:43:25.792Z,10.40
2022-08-17T07:46:11.349Z,7.60
2022-08-17T07:48:39.126Z,10.20
2022-08-17T07:51:06.850Z,6.00
2022-08-17T07:53:34.757Z,7.00
2022-08-17T07:56:02.715Z,6.40
2022-08-17T07:58:30.365Z,4.40
2022-08-17T08:00:59.268Z,6.80
2022-08-17T08:03:31.990Z,5.60
2022-08-17T08:06:00.465Z,7.00
2022-08-17T08:08:28.643Z,9.00
2022-08-17T08:10:56.360Z,7.20
2022-08-17T08:13:24.064Z,3.40
2022-08-17T08:15:53.458Z,6.00
2022-08-17T08:18:53.286Z,7.40
2022-08-17T08:21:10.263Z,7.80
2022-08-17T08:23:38.483Z,8.00
2022-08-17T08:26:06.519Z,6.60
2022-08-17T08:28:35.867Z,8.00
2022-08-17T08:31:03.811Z,5.00
2022-08-17T08:33:32.174Z,7.60
2022-08-17T08:35:59.875Z,7.20
2022-08-17T08:38:28.260Z,6.00
2022-08-17T08:40:56.307Z,6.00
2022-08-17T08:43:24.640Z,7.20
2022-08-17T08:45:52.523Z,7.40
2022-08-17T08:48:23.014Z,5.00
2022-08-17T08:51:08.603Z,5.20
2022-08-17T08:53:39.262Z,6.00
2022-08-17T08:56:07.178Z,6.00
2022-08-17T08:58:41.330Z,5.00
2022-08-17T09:01:16.710Z,5.80
2022-08-17T09:03:52.918Z,9.00
2022-08-17T09:06:33.357Z,9.60
2022-08-17T09:09:07.343Z,7.20
2022-08-17T09:11:35.748Z,5.80
2022-08-17T09:14:28.598Z,8.80
2022-08-17T09:16:57.114Z,7.20
2022-08-17T09:19:30.599Z,9.20
2022-08-17T09:21:58.272Z,7.40
2022-08-17T09:24:26.958Z,7.00
2022-08-17T09:26:55.673Z,7.20
2022-08-17T09:29:25.572Z,8.00
2022-08-17T09:31:53.580Z,7.60
2022-08-17T09:34:21.516Z,6.40
2022-08-17T09:36:56.244Z,7.40
2022-08-17T09:39:23.894Z,6.60
2022-08-17T09:41:53.503Z,6.00
2022-08-17T09:44:24.026Z,7.00
2022-08-17T09:46:51.958Z,6.00
2022-08-17T09:49:24.633Z,7.20
2022-08-17T09:51:53.221Z,7.00
2022-08-17T09:54:38.525Z,6.00
2022-08-17T09:57:28.633Z,5.20
2022-08-17T09:59:55.499Z,6.40
2022-08-17T10:02:23.198Z,4.20
2022-08-17T10:04:50.817Z,5.00
2022-08-17T10:07:18.908Z,6.80
2022-08-17T10:09:46.635Z,7.60
2022-08-17T10:12:21.588Z,7.40
2022-08-17T10:14:57.641Z,8.20
2022-08-17T10:17:36.510Z,7.00
2022-08-17T10:20:04.186Z,7.40
2022-08-17T10:22:53.195Z,7.20
2022-08-17T10:25:54.016Z,1.80
2022-08-17T10:28:28.940Z,8.00
2022-08-17T10:31:16.536Z,6.60
2022-08-17T10:33:44.726Z,7.40
2022-08-17T10:36:12.461Z,7.20
2022-08-17T10:38:40.207Z,5.00
2022-08-17T10:41:07.868Z,7.40
2022-08-17T10:43:35.871Z,5.20
2022-08-17T10:46:21.308Z,7.00
2022-08-17T10:48:51.781Z,6.40
2022-08-17T10:51:20.709Z,7.00
2022-08-17T10:53:48.570Z,7.40
2022-08-17T10:56:17.713Z,5.20
2022-08-17T10:58:45.841Z,8.00
2022-08-17T11:01:13.515Z,8.00
2022-08-17T11:03:41.666Z,8.00
2022-08-17T11:06:12.856Z,9.00
2022-08-17T11:08:40.728Z,9.00
2022-08-17T11:11:08.718Z,9.40
2022-08-17T11:13:37.809Z,6.80
2022-08-17T11:16:08.541Z,7.00
2022-08-17T11:18:36.714Z,8.60
2022-08-17T11:21:04.683Z,8.80
2022-08-17T11:23:33.223Z,8.80
2022-08-17T11:26:08.346Z,8.80
2022-08-17T11:28:36.072Z,8.00
2022-08-17T11:31:04.118Z,8.00
2022-08-17T11:33:36.912Z,9.00
2022-08-17T11:36:06.594Z,8.20
2022-08-17T11:38:34.237Z,9.80
2022-08-17T11:41:02.661Z,8.80
2022-08-17T11:43:32.237Z,8.80
2022-08-17T11:46:01.466Z,8.00
2022-08-17T11:48:46.648Z,7.80
2022-08-17T11:51:34.930Z,9.60
2022-08-17T11:54:30.974Z,8.40
2022-08-17T11:56:50.453Z,10.00
2022-08-17T11:59:19.861Z,8.60
2022-08-17T12:01:47.567Z,9.60
2022-08-17T12:04:15.300Z,10.00
2022-08-17T12:06:43.146Z,9.40
2022-08-17T12:09:10.961Z,10.60
2022-08-17T12:11:58.665Z,11.00
2022-08-17T12:14:45.022Z,9.60
2022-08-17T12:17:14.416Z,9.60
2022-08-17T12:19:57.341Z,8.60
2022-08-17T12:22:26.661Z,11.00
2022-08-17T12:24:54.830Z,11.00
2022-08-17T12:28:02.064Z,11.60
2022-08-17T12:30:10.676Z,11.00
2022-08-17T12:32:40.807Z,9.20
2022-08-17T12:35:08.939Z,9.40
2022-08-17T12:37:36.888Z,10.20
2022-08-17T12:40:04.732Z,13.00
2022-08-17T12:42:33.167Z,13.00
2022-08-17T12:45:01.193Z,12.80
2022-08-17T12:47:30.220Z,12.80
2022-08-17T12:49:59.493Z,12.60
2022-08-17T12:52:27.228Z,9.80
2022-08-17T12:54:55.145Z,11.00
2022-08-17T12:57:22.831Z,12.40
2022-08-17T12:59:50.465Z,10.40
2022-08-17T13:02:18.188Z,11.00
2022-08-17T13:04:45.806Z,9.60
2022-08-17T13:07:13.864Z,12.40
2022-08-17T13:09:41.805Z,9.80
2022-08-17T13:12:09.566Z,12.00
2022-08-17T13:14:37.274Z,11.60
2022-08-17T13:17:11.034Z,12.40
2022-08-17T13:19:48.302Z,12.40
2022-08-17T13:22:16.111Z,12.00
2022-08-17T13:24:44.195Z,13.00
2022-08-17T13:27:11.967Z,10.60
2022-08-17T13:29:39.974Z,13.00
2022-08-17T13:32:13.000Z,12.60
2022-08-17T13:35:12.959Z,12.00
2022-08-17T13:37:30.426Z,11.00
2022-08-17T13:39:58.178Z,11.20
2022-08-17T13:42:25.937Z,13.80
2022-08-17T13:44:53.942Z,14.40
2022-08-17T13:47:22.197Z,8.40
2022-08-17T13:49:49.885Z,14.60
2022-08-17T13:52:19.727Z,15.00
2022-08-17T13:54:55.612Z,15.00
2022-08-17T13:57:23.697Z,16.00
2022-08-17T13:59:55.158Z,18.00
2022-08-17T14:02:23.476Z,17.00
2022-08-17T14:04:56.385Z,17.00
2022-08-17T14:07:24.143Z,15.20
2022-08-17T14:09:52.151Z,16.80
2022-08-17T14:12:19.808Z,16.20
2022-08-17T14:14:47.510Z,16.80
2022-08-17T14:17:15.306Z,20.80
2022-08-17T14:19:43.239Z,18.60
2022-08-17T14:22:11.822Z,19.00
2022-08-17T14:24:44.697Z,15.80
2022-08-17T14:27:13.169Z,16.20
2022-08-17T14:29:41.459Z,18.80
2022-08-17T14:32:09.292Z,18.60
2022-08-17T14:34:36.981Z,17.20
2022-08-17T14:37:05.971Z,20.80
2022-08-17T14:39:34.067Z,17.20
2022-08-17T14:42:01.843Z,17.80
2022-08-17T14:44:30.242Z,20.40
2022-08-17T14:46:57.944Z,16.20
2022-08-17T14:49:26.160Z,18.40
2022-08-17T14:51:54.220Z,21.60
2022-08-17T14:54:34.362Z,22.00
2022-08-17T14:57:22.454Z,18.80
2022-08-17T14:59:54.228Z,21.40
2022-08-17T15:02:23.085Z,22.40
2022-08-17T15:04:58.056Z,19.00
2022-08-17T15:07:30.417Z,21.00
2022-08-17T15:10:00.487Z,19.60
2022-08-17T15:12:32.403Z,20.20
2022-08-17T15:15:01.042Z,20.00
2022-08-17T15:17:43.937Z,21.60
2022-08-17T15:20:15.020Z,22.60
2022-08-17T15:22:43.386Z,21.60
2022-08-17T15:25:11.246Z,23.00
2022-08-17T15:27:39.233Z,21.80
2022-08-17T15:30:07.413Z,23.80
2022-08-17T15:32:35.202Z,23.00
2022-08-17T15:35:03.037Z,20.40
2022-08-17T15:37:32.012Z,23.80
2022-08-17T15:40:00.849Z,23.20
2022-08-17T15:42:29.398Z,18.00
2022-08-17T15:44:57.220Z,23.00
2022-08-17T15:47:25.302Z,23.20
2022-08-17T15:49:57.935Z,23.00
2022-08-17T15:52:27.706Z,22.80
2022-08-17T15:54:55.364Z,22.40
2022-08-17T15:57:24.224Z,27.00
2022-08-17T15:59:55.104Z,22.40
2022-08-17T16:03:14.979Z,25.80
2022-08-17T16:05:14.582Z,25.00
2022-08-17T16:07:45.195Z,25.40
2022-08-17T16:10:18.308Z,27.80
2022-08-17T16:12:46.920Z,31.20
2022-08-17T16:15:14.857Z,26.40
2022-08-17T16:17:42.794Z,25.20
2022-08-17T16:20:19.928Z,26.40
2022-08-17T16:22:48.657Z,24.20
2022-08-17T16:25:16.786Z,23.80
2022-08-17T16:27:44.584Z,23.00
2022-08-17T16:30:16.935Z,25.00
2022-08-17T16:32:45.201Z,24.60
2022-08-17T16:35:14.442Z,24.20
2022-08-17T16:37:45.462Z,24.60
2022-08-17T16:40:13.688Z,25.20
2022-08-17T16:42:41.684Z,25.00
2022-08-17T16:45:09.929Z,26.20
2022-08-17T16:47:37.780Z,26.00
2022-08-17T16:50:05.480Z,25.80
2022-08-17T16:52:33.758Z,25.00
2022-08-17T16:55:01.716Z,26.20
2022-08-17T16:57:29.933Z,24.80
2022-08-17T16:59:57.637Z,25.20
2022-08-17T17:02:25.355Z,27.00
2022-08-17T17:04:53.094Z,25.40
2022-08-17T17:07:20.827Z,25.80
2022-08-17T17:09:52.674Z,24.00
2022-08-17T17:12:34.973Z,26.00
2022-08-17T17:15:08.185Z,24.20
2022-08-17T17:17:36.261Z,24.60
2022-08-17T17:20:04.027Z,27.00
2022-08-17T17:22:31.740Z,27.20
2022-08-17T17:24:59.656Z,26.40
2022-08-17T17:27:29.669Z,29.00
2022-08-17T17:29:57.423Z,26.40
2022-08-17T17:32:25.207Z,29.00
2022-08-17T17:34:52.873Z,28.20
2022-08-17T17:37:20.600Z,30.60
2022-08-17T17:39:49.190Z,29.00
2022-08-17T17:42:20.292Z,29.60
2022-08-17T17:44:48.115Z,26.20
2022-08-17T17:47:17.089Z,30.60
2022-08-17T17:49:45.141Z,28.00
2022-08-17T17:52:18.445Z,27.00
2022-08-17T17:54:46.972Z,29.80
2022-08-17T17:57:14.657Z,29.00
2022-08-17T17:59:44.216Z,29.40
2022-08-17T18:02:12.202Z,28.00
2022-08-17T18:04:40.932Z,28.00
2022-08-17T18:07:10.082Z,28.60
2022-08-17T18:09:39.145Z,29.40
2022-08-17T18:12:08.998Z,29.80
2022-08-17T18:14:37.081Z,27.40
2022-08-17T18:17:04.733Z,28.40
2022-08-17T18:19:32.787Z,28.00
2022-08-17T18:22:00.920Z,26.20
2022-08-17T18:24:28.661Z,27.40
2022-08-17T18:26:56.533Z,28.80
2022-08-17T18:29:24.999Z,29.00
2022-08-17T18:31:52.822Z,27.60
2022-08-17T18:34:45.771Z,28.60
2022-08-17T18:37:11.271Z,28.60
2022-08-17T18:39:44.255Z,27.80
2022-08-17T18:42:13.147Z,28.20
2022-08-17T18:44:40.863Z,28.00
2022-08-17T18:47:08.597Z,28.00
2022-08-17T18:49:36.652Z,29.40
2022-08-17T18:52:04.369Z,29.00
2022-08-17T18:54:32.536Z,28.60
2022-08-17T18:57:00.321Z,27.20
2022-08-17T18:59:28.464Z,29.20
2022-08-17T19:01:58.483Z,25.20
2022-08-17T19:04:26.994Z,27.00
2022-08-17T19:07:00.483Z,27.80
2022-08-17T19:09:28.508Z,28.60
2022-08-17T19:11:56.187Z,27.40
2022-08-17T19:14:25.923Z,25.20
2022-08-17T19:16:53.648Z,28.40
2022-08-17T19:19:21.654Z,24.00
2022-08-17T19:21:49.413Z,26.80
2022-08-17T19:24:19.607Z,24.60
2022-08-17T19:26:53.608Z,28.20
2022-08-17T19:29:23.865Z,27.40
2022-08-17T19:31:51.533Z,26.20
2022-08-17T19:34:30.183Z,23.20
2022-08-17T19:37:01.986Z,26.20
2022-08-17T19:39:38.628Z,24.80
2022-08-17T19:42:06.555Z,26.20
2022-08-17T19:44:34.511Z,26.00
2022-08-17T19:47:02.733Z,23.60
2022-08-17T19:49:40.687Z,24.00
2022-08-17T19:52:10.258Z,26.00
2022-08-17T19:54:38.189Z,28.60
2022-08-17T19:57:05.976Z,26.00
2022-08-17T19:59:35.956Z,26.20
2022-08-17T20:02:04.493Z,27.80
2022-08-17T20:04:32.615Z,24.60
2022-08-17T20:07:00.555Z,25.00
2022-08-17T20:09:29.633Z,27.20
2022-08-17T20:12:01.462Z,25.40
2022-08-17T20:14:29.096Z,26.40
2022-08-17T20:17:01.878Z,27.50
2022-08-17T20:19:30.667Z,24.25
2022-08-17T20:21:58.415Z,26.25
2022-08-17T20:24:26.088Z,30.75
2022-08-17T20:26:58.144Z,27.00
2022-08-17T20:29:31.896Z,28.75
2022-08-17T20:32:05.749Z,25.50
2022-08-17T20:34:37.408Z,29.00
2022-08-17T20:37:06.134Z,29.25
2022-08-17T20:39:38.116Z,27.50
2022-08-17T20:42:05.907Z,26.50
2022-08-17T20:44:33.756Z,27.75
2022-08-17T20:47:01.622Z,27.50
2022-08-17T20:49:29.407Z,24.50
2022-08-17T20:52:01.698Z,22.25
2022-08-17T20:54:30.517Z,27.50
2022-08-17T20:56:58.420Z,31.00
2022-08-17T20:59:27.705Z,26.80
2022-08-17T21:01:55.453Z,24.00
2022-08-17T21:04:23.098Z,18.60
2022-08-17T21:06:50.724Z,24.80
2022-08-17T21:09:18.784Z,26.50
2022-08-17T21:12:03.262Z,26.20
2022-08-17T21:14:32.891Z,26.50
2022-08-17T21:17:01.466Z,26.75
2022-08-17T21:19:31.207Z,26.00
2022-08-17T21:21:59.213Z,22.00
2022-08-17T21:24:26.955Z,20.00
2022-08-17T21:26:55.605Z,23.50
2022-08-17T21:29:31.376Z,27.00
2022-08-17T21:32:00.616Z,27.50
2022-08-17T21:34:28.447Z,27.25
2022-08-17T21:36:57.062Z,26.00
2022-08-17T21:39:30.651Z,28.75
2022-08-17T21:42:00.976Z,27.50
2022-08-17T21:44:31.180Z,24.75
2022-08-17T21:46:59.073Z,26.60
2022-08-17T21:49:26.777Z,25.00
2022-08-17T21:51:54.568Z,22.50
2022-08-17T21:54:22.557Z,28.00
2022-08-17T21:56:50.244Z,23.00
2022-08-17T21:59:18.330Z,25.00
2022-08-17T22:01:46.018Z,28.50
2022-08-17T22:04:18.333Z,27.75
2022-08-17T22:06:56.678Z,26.50
2022-08-17T22:09:25.859Z,27.25
2022-08-17T22:11:53.490Z,30.75
2022-08-17T22:14:21.786Z,24.25
2022-08-17T22:16:50.751Z,30.50
2022-08-17T22:19:20.493Z,28.25
2022-08-17T22:21:48.179Z,28.00
2022-08-17T22:24:14.860Z,27.50
2022-08-17T22:26:42.788Z,27.25
2022-08-17T22:29:10.546Z,29.25
2022-08-17T22:31:38.246Z,27.75
2022-08-17T22:34:06.839Z,25.75
2022-08-17T22:36:34.683Z,20.00
2022-08-17T22:39:02.687Z,31.25
2022-08-17T22:41:32.170Z,28.25
2022-08-17T22:44:02.522Z,25.00
2022-08-17T22:46:30.386Z,30.50
2022-08-17T22:48:59.509Z,28.00
2022-08-17T22:51:27.434Z,23.50
2022-08-17T22:54:12.504Z,22.00
2022-08-17T22:56:57.724Z,25.50
2022-08-17T22:59:27.382Z,24.50
2022-08-17T23:01:55.053Z,27.00
2022-08-17T23:04:22.802Z,26.50
2022-08-17T23:06:50.423Z,23.25
2022-08-17T23:09:18.431Z,26.25
2022-08-17T23:11:50.051Z,24.00
2022-08-17T23:14:19.308Z,23.50
2022-08-17T23:16:47.017Z,29.00
2022-08-17T23:19:15.516Z,23.50
2022-08-17T23:21:44.892Z,23.00
2022-08-17T23:24:13.754Z,25.75
2022-08-17T23:26:41.438Z,23.50
2022-08-17T23:29:09.560Z,30.00
2022-08-17T23:31:37.369Z,28.25
2022-08-17T23:34:05.021Z,30.25
2022-08-17T23:36:35.384Z,33.25
2022-08-17T23:39:03.309Z,28.00
2022-08-17T23:41:31.763Z,19.25
2022-08-17T23:43:59.396Z,28.75
2022-08-17T23:46:27.060Z,27.75
2022-08-17T23:48:55.016Z,29.25
2022-08-17T23:51:22.760Z,26.00
2022-08-17T23:53:50.426Z,26.50
2022-08-17T23:56:24.088Z,19.25
2022-08-17T23:58:51.766Z,26.00
